This is the latest recevied weather packets stored in our database for station/object VA3VWX-13. If no packets are shown the sender has not sent any weather packets the latest 10 day(s).
| Time | Temp. | Humidity | Pressure | Rain* | Wind** | Luminosity | Snow |
|---|---|---|---|---|---|---|---|
| 1777838917 | 14.44° C | 52% | 1008.2 hPa | 0 mm | - | - | - |
| 1777838635 | 13.33° C | 55% | 1008.2 hPa | 0 mm | - | - | - |
| 1777838324 | 12.22° C | 58% | 1008.3 hPa | 0 mm | - | - | - |
| 1777838004 | 11.11° C | 61% | 1008.4 hPa | 0 mm | - | - | - |
| 1777837710 | 11.11° C | 61% | 1008.4 hPa | 0 mm | - | - | - |
| 1777837418 | 10.56° C | 63% | 1008.5 hPa | 0 mm | - | - | - |
| 1777837161 | 10.56° C | 64% | 1008.5 hPa | 0 mm | - | - | - |
| 1777836803 | 10.56° C | 63% | 1008.5 hPa | 0 mm | - | - | - |
| 1777836531 | 11.11° C | 63% | 1008.5 hPa | 0 mm | - | - | - |
| 1777836207 | 10.56° C | 63% | 1008.6 hPa | 0 mm | - | - | - |
| 1777835915 | 10.56° C | 63% | 1008.7 hPa | 0 mm | - | - | - |
| 1777835621 | 10° C | 65% | 1008.8 hPa | 0 mm | - | - | - |
| 1777835320 | 10° C | 65% | 1008.9 hPa | 0 mm | - | - | - |
| 1777835038 | 10° C | 64% | 1009 hPa | 0 mm | - | - | - |
| 1777834708 | 10° C | 62% | 1009.1 hPa | 0 mm | - | - | - |
| 1777834416 | 10° C | 60% | 1009.3 hPa | 0 mm | - | - | - |
| 1777834114 | 10.56° C | 58% | 1009.4 hPa | 0 mm | - | - | - |
| 1777833820 | 10.56° C | 56% | 1009.6 hPa | 0 mm | - | - | - |
| 1777833527 | 10° C | 55% | 1009.6 hPa | 0 mm | - | - | - |
| 1777833205 | 10.56° C | 53% | 1009.7 hPa | 0 mm | - | - | - |
| 1777832909 | 10° C | 52% | 1009.7 hPa | 0 mm | - | - | - |
| 1777832615 | 10° C | 50% | 1009.8 hPa | 0 mm | - | - | - |
| 1777832313 | 10.56° C | 48% | 1009.9 hPa | 0 mm | - | - | - |
| 1777832021 | 10.56° C | 48% | 1010.1 hPa | 0 mm | - | - | - |
| 1777831703 | 11.11° C | 47% | 1010.2 hPa | 0 mm | - | - | - |
* Rain latest hour (hover to see other rain measurements)
** Current wind speed in m/s (hover to see current wind gust speed)